Atlanta, Georgia
Traffic Map
Current Weather Conditions
Atlanta, Georgia
Broken Clouds
Broken Clouds
56°
Feels Like: 56°
Wind Chill: 56° Ceiling: 1500
Heat Index: 56° Visibility: 10mi
Dew Point: 54° Wind: 13mph
Humidity: 93% Direction: 260° (W)
Pressure: 29.67in Gusts: 0mph
Raw Report DataKATL 251027Z 26011KT 10SM BKN015 BKN044 BKN080 BKN200 13/12 A2967 RMK AO2 RAB0955E05 CIG 013V017 P0000 T01330122
Traffic Incident Summary
Active as of:
Severity:
Category:
InformationThere was an issue retrieving the traffic information for this location. Please try a different location or try again shortly.
Advertisements
Track Severe Weather on mobile